Airfield :
LOGIN :

Register | Disclaimer

   EN    FR    IT 

 










Legend :    VFR   Marginal VFR   IFR   Intensive IFR   Very Intensive IFR
Visi :
Ceiling :
>= 8 km
>= 3000ft
5 to 8 km
1000 to 3000 ft
1500m to 5 km
500 to 1000 ft
800 to 1500m
200 to 500 ft
< 800m
< 200 ft
Symbols :   Thunderstorms  Fog  Heavy snow  Heavy precipitations  Wind > 20 kt
SIGMETs :     Misc.  Thunderstorms  Icing  Turbulence  Mountain Waves  Volcanic Ashes






- Airport Elevation : 313 ft
- IATA code : LEH


LFOH - Le Havre Octeville

CURRENT METAR :
  • 262030Z AUTO 24015KT 9999 BKN012/// BKN020/// BKN040/// ///CB 11/09 Q1004

EXPIRED METARs :
  • 262000Z AUTO 24015KT 9999 BKN017/// BKN062/// BKN210/// ///CB 11/09 Q1004
  • 261930Z AUTO 24016KT 9999 BKN013/// BKN045/// BKN060/// ///CB 11/09 Q1004
  • 261900Z AUTO 23016KT 9999 FEW011/// SCT038/// ///CB 11/09 Q1004 TEMPO 22018G28KT 3000 SHRA BKN012 BKN020CB
  • 261830Z AUTO 23015KT 9999 FEW017 BKN023 BKN029 11/09 Q1003 TEMPO 22018G28KT 3000 SHRA BKN012 BKN020CB
  • 261800Z AUTO 24016KT 9999 BKN019/// BKN029/// BKN037/// ///CB 12/09 Q1003 TEMPO 22018G28KT 3000 SHRA BKN012 BKN020CB

TAF TAF LFOH
Valid from the 26 at 12:00 until the 27 at 12:00 UTC


261100Z 2612/2712 22015KT 9999 BKN025
TEMPO 2612/2621 22018G28KT 3000 SHRA BKN012 BKN020CB
PROB40 2612/2616 22020G38KT 1200 TSRAGR
BECMG 2706/2708 20017G27KT BKN013
TEMPO 2708/2712 3000 RADZ BKN005 OVC013
ATIS : +33 2 35 54 64 93



MET'MAP, your aeronautical weather chart ! - Copyright ORBIFLY December 2007 - Disclaimer

ORBIFLY MET'MAP TEAM :

Programming & Development : Alexandra Zaïnal
Concept & original design : Baudouin d'Aumeries
Assistance for programming : Marc-Olivier Méhu
Technical & hardware support : Manuel Goepfert

Contact : metmap@orbifly.com




SOURCES & CREDITS :

   NOAA